createdAt,value
2022-11-20T00:01:25.681Z,0.48
2022-11-20T00:03:54.336Z,0.49
2022-11-20T00:06:22.064Z,0.35
2022-11-20T00:08:49.207Z,0.47
2022-11-20T00:11:21.143Z,0.63
2022-11-20T00:13:50.365Z,0.75
2022-11-20T00:16:19.808Z,0.37
2022-11-20T00:18:46.553Z,0.50
2022-11-20T00:21:35.915Z,0.46
2022-11-20T00:24:02.702Z,0.74
2022-11-20T00:26:29.894Z,0.73
2022-11-20T00:29:05.619Z,0.47
2022-11-20T00:31:34.172Z,0.51
2022-11-20T00:34:03.507Z,0.68
2022-11-20T00:36:34.076Z,0.74
2022-11-20T00:39:03.070Z,0.83
2022-11-20T00:41:33.031Z,0.55
2022-11-20T00:43:59.946Z,0.82
2022-11-20T00:46:28.744Z,0.85
2022-11-20T00:48:55.657Z,0.84
2022-11-20T00:51:24.519Z,0.52
2022-11-20T00:53:53.609Z,0.49
2022-11-20T00:56:20.723Z,0.66
2022-11-20T00:58:51.399Z,0.76
2022-11-20T01:01:26.957Z,0.65
2022-11-20T01:03:58.285Z,0.70
2022-11-20T01:06:35.811Z,0.76
2022-11-20T01:09:11.979Z,0.53
2022-11-20T01:11:45.386Z,0.49
2022-11-20T01:14:20.189Z,0.53
2022-11-20T01:16:50.911Z,0.52
2022-11-20T01:19:23.787Z,0.66
2022-11-20T01:21:55.611Z,0.41
2022-11-20T01:24:25.448Z,0.28
2022-11-20T01:26:53.036Z,0.41
2022-11-20T01:29:23.372Z,0.50
2022-11-20T01:31:53.602Z,0.60
2022-11-20T01:34:21.467Z,0.68
2022-11-20T01:36:49.835Z,0.63
2022-11-20T01:39:24.619Z,0.69
2022-11-20T01:42:11.407Z,0.69
2022-11-20T01:44:59.278Z,0.63
2022-11-20T01:47:41.042Z,0.54
2022-11-20T01:50:16.131Z,0.73
2022-11-20T01:52:49.597Z,0.78
2022-11-20T01:55:22.988Z,0.62
2022-11-20T01:57:52.739Z,0.67
2022-11-20T02:00:21.660Z,0.83
2022-11-20T02:03:04.834Z,0.95
2022-11-20T02:06:00.187Z,0.94
2022-11-20T02:08:34.561Z,0.82
2022-11-20T02:11:01.184Z,1.03
2022-11-20T02:13:45.479Z,1.00
2022-11-20T02:16:45.209Z,0.86
2022-11-20T02:19:30.175Z,1.03
2022-11-20T02:22:05.613Z,1.16
2022-11-20T02:24:34.824Z,1.19
2022-11-20T02:27:13.799Z,1.21
2022-11-20T02:29:47.490Z,1.24
2022-11-20T02:32:34.089Z,1.12
2022-11-20T02:35:09.843Z,1.25
2022-11-20T02:37:42.853Z,1.13
2022-11-20T02:40:09.991Z,1.27
2022-11-20T02:42:37.602Z,1.18
2022-11-20T02:45:08.073Z,1.30
2022-11-20T02:47:34.957Z,1.11
2022-11-20T02:50:01.568Z,1.34
2022-11-20T02:52:30.564Z,1.51
2022-11-20T02:54:57.062Z,1.53
2022-11-20T02:57:25.859Z,1.38
2022-11-20T02:59:52.548Z,1.43
2022-11-20T03:02:21.581Z,1.53
2022-11-20T03:04:48.102Z,1.51
2022-11-20T03:07:14.890Z,1.46
2022-11-20T03:09:46.286Z,1.50
2022-11-20T03:12:15.494Z,1.41
2022-11-20T03:14:41.988Z,1.51
2022-11-20T03:17:08.534Z,1.40
2022-11-20T03:19:35.514Z,1.46
2022-11-20T03:22:04.260Z,1.29
2022-11-20T03:24:30.864Z,1.38
2022-11-20T03:27:02.386Z,1.38
2022-11-20T03:29:28.904Z,1.50
2022-11-20T03:31:55.561Z,1.39
2022-11-20T03:34:26.910Z,1.31
2022-11-20T03:36:53.490Z,1.51
2022-11-20T03:39:20.263Z,1.47
2022-11-20T03:41:49.444Z,1.54
2022-11-20T03:44:15.997Z,1.41
2022-11-20T03:46:49.872Z,1.36
2022-11-20T03:49:16.444Z,1.54
2022-11-20T03:51:45.736Z,1.34
2022-11-20T03:54:14.394Z,1.35
2022-11-20T03:56:43.180Z,1.41
2022-11-20T03:59:11.367Z,1.25
2022-11-20T04:01:38.741Z,1.36
2022-11-20T04:04:08.148Z,1.32
2022-11-20T04:06:35.851Z,1.55
2022-11-20T04:09:02.809Z,1.21
2022-11-20T04:11:34.142Z,1.21
2022-11-20T04:14:03.273Z,1.09
2022-11-20T04:16:32.251Z,1.04
2022-11-20T04:19:04.830Z,1.17
2022-11-20T04:21:31.630Z,1.23
2022-11-20T04:23:59.059Z,1.23
2022-11-20T04:26:27.387Z,1.35
2022-11-20T04:28:57.201Z,1.55
2022-11-20T04:31:26.808Z,1.59
2022-11-20T04:33:56.147Z,1.69
2022-11-20T04:36:23.691Z,1.56
2022-11-20T04:39:00.368Z,1.63
2022-11-20T04:41:30.218Z,1.73
2022-11-20T04:44:03.938Z,1.85
2022-11-20T04:46:35.915Z,1.86
2022-11-20T04:49:05.079Z,1.77
2022-11-20T04:51:36.934Z,1.77
2022-11-20T04:54:03.674Z,1.78
2022-11-20T04:56:30.164Z,1.76
2022-11-20T04:58:59.662Z,1.94
2022-11-20T05:01:28.535Z,1.99
2022-11-20T05:03:55.225Z,1.99
2022-11-20T05:06:22.593Z,2.07
2022-11-20T05:08:49.271Z,2.06
2022-11-20T05:11:20.593Z,2.06
2022-11-20T05:13:50.564Z,1.98
2022-11-20T05:16:23.162Z,2.00
2022-11-20T05:18:53.326Z,2.06
2022-11-20T05:21:20.218Z,2.19
2022-11-20T05:23:47.005Z,2.09
2022-11-20T05:26:16.640Z,2.16
2022-11-20T05:28:43.648Z,2.08
2022-11-20T05:31:25.040Z,2.17
2022-11-20T05:33:53.543Z,1.90
2022-11-20T05:36:22.307Z,1.65
2022-11-20T05:38:51.229Z,1.91
2022-11-20T05:41:20.326Z,2.06
2022-11-20T05:43:51.175Z,1.97
2022-11-20T05:46:27.862Z,2.25
2022-11-20T05:48:58.777Z,2.24
2022-11-20T05:51:26.035Z,2.29
2022-11-20T05:53:54.798Z,2.46
2022-11-20T05:56:22.991Z,2.50
2022-11-20T05:58:52.254Z,2.62
2022-11-20T06:01:21.672Z,2.65
2022-11-20T06:03:48.960Z,2.64
2022-11-20T06:06:16.520Z,2.66
2022-11-20T06:08:43.286Z,2.66
2022-11-20T06:11:12.833Z,2.83
2022-11-20T06:13:42.844Z,2.70
2022-11-20T06:16:16.853Z,2.79
2022-11-20T06:18:46.074Z,2.86
2022-11-20T06:21:18.086Z,2.71
2022-11-20T06:23:46.127Z,2.62
2022-11-20T06:26:22.735Z,2.66
2022-11-20T06:28:53.666Z,2.60
2022-11-20T06:31:22.960Z,2.65
2022-11-20T06:33:50.265Z,2.78
2022-11-20T06:36:23.951Z,2.80
2022-11-20T06:38:50.667Z,2.85
2022-11-20T06:41:21.731Z,2.80
2022-11-20T06:43:48.604Z,2.93
2022-11-20T06:46:23.183Z,2.81
2022-11-20T06:48:52.374Z,2.84
2022-11-20T06:51:19.677Z,2.71
2022-11-20T06:53:46.520Z,2.84
2022-11-20T06:56:13.095Z,2.65
2022-11-20T06:58:39.672Z,2.81
2022-11-20T07:01:12.000Z,2.89
2022-11-20T07:03:41.760Z,3.04
2022-11-20T07:06:11.168Z,3.03
2022-11-20T07:08:37.618Z,2.98
2022-11-20T07:11:09.516Z,2.97
2022-11-20T07:13:36.385Z,3.30
2022-11-20T07:16:05.852Z,3.44
2022-11-20T07:18:32.518Z,3.48
2022-11-20T07:21:07.439Z,3.44
2022-11-20T07:23:36.815Z,3.16
2022-11-20T07:26:11.749Z,3.02
2022-11-20T07:28:39.194Z,3.16
2022-11-20T07:31:07.869Z,2.97
2022-11-20T07:33:35.386Z,3.10
2022-11-20T07:36:04.632Z,3.24
2022-11-20T07:38:31.290Z,3.25
2022-11-20T07:40:58.661Z,3.38
2022-11-20T07:43:26.478Z,3.46
2022-11-20T07:45:53.213Z,3.45
2022-11-20T07:48:24.370Z,3.42
2022-11-20T07:50:53.122Z,3.36
2022-11-20T07:53:22.780Z,3.51
2022-11-20T07:55:53.509Z,3.54
2022-11-20T07:58:25.343Z,3.45
2022-11-20T08:00:54.212Z,3.48
2022-11-20T08:03:26.009Z,3.61
2022-11-20T08:05:57.424Z,3.77
2022-11-20T08:08:23.958Z,3.82
2022-11-20T08:10:50.541Z,3.80
2022-11-20T08:13:38.136Z,3.84
2022-11-20T08:16:04.990Z,3.94
2022-11-20T08:18:32.644Z,4.09
2022-11-20T08:21:05.700Z,3.90
2022-11-20T08:23:32.445Z,3.45
2022-11-20T08:26:01.201Z,3.36
2022-11-20T08:28:27.742Z,3.22
2022-11-20T08:31:03.071Z,3.55
2022-11-20T08:33:36.873Z,3.74
2022-11-20T08:36:09.658Z,3.69
2022-11-20T08:38:36.188Z,3.86
2022-11-20T08:41:24.540Z,4.03
2022-11-20T08:43:56.575Z,3.73
2022-11-20T08:46:27.369Z,3.70
2022-11-20T08:48:57.148Z,3.70
2022-11-20T08:51:23.660Z,3.75
2022-11-20T08:53:52.472Z,4.07
2022-11-20T08:56:21.571Z,4.28
2022-11-20T09:01:34.667Z,4.44
2022-11-20T09:04:01.242Z,4.34
2022-11-20T09:06:28.045Z,4.38
2022-11-20T09:09:00.714Z,4.31
2022-11-20T09:11:30.086Z,4.47
2022-11-20T09:13:56.660Z,4.49
2022-11-20T09:16:25.873Z,4.55
2022-11-20T09:19:02.221Z,4.64
2022-11-20T09:21:38.833Z,4.50
2022-11-20T09:24:06.180Z,4.51
2022-11-20T09:26:32.726Z,4.79
2022-11-20T09:28:59.224Z,4.91
2022-11-20T09:31:27.243Z,4.71
2022-11-20T09:33:53.788Z,4.64
2022-11-20T09:36:23.563Z,4.74
2022-11-20T09:38:50.091Z,4.81
2022-11-20T09:41:28.360Z,4.90
2022-11-20T09:44:03.899Z,4.37
2022-11-20T09:46:33.404Z,4.57
2022-11-20T09:49:26.299Z,4.70
2022-11-20T09:52:00.929Z,4.81
2022-11-20T09:54:35.234Z,4.70
2022-11-20T09:57:12.127Z,4.92
2022-11-20T09:59:50.596Z,4.95
2022-11-20T10:02:36.268Z,4.91
2022-11-20T10:05:02.734Z,4.80
2022-11-20T10:07:56.140Z,4.86
2022-11-20T10:10:43.822Z,4.99
2022-11-20T10:13:34.589Z,5.15
2022-11-20T10:16:22.533Z,5.27
2022-11-20T10:18:55.454Z,5.10
2022-11-20T10:21:42.824Z,4.88
2022-11-20T10:24:40.068Z,5.07
2022-11-20T10:27:54.152Z,5.32
2022-11-20T10:30:25.843Z,5.62
2022-11-20T10:33:20.708Z,5.64
2022-11-20T10:35:56.544Z,5.78
2022-11-20T10:38:31.584Z,5.72
2022-11-20T10:41:21.222Z,5.74
2022-11-20T10:43:50.652Z,5.72
2022-11-20T10:46:21.029Z,5.93
2022-11-20T10:48:48.382Z,5.65
2022-11-20T10:51:33.427Z,5.82
2022-11-20T10:54:02.925Z,5.97
2022-11-20T10:56:49.679Z,6.07
2022-11-20T10:59:40.988Z,6.17
2022-11-20T11:02:23.052Z,6.22
2022-11-20T11:04:56.036Z,6.25
2022-11-20T11:07:28.559Z,6.01
2022-11-20T11:09:59.201Z,6.17
2022-11-20T11:12:29.738Z,6.17
2022-11-20T11:15:00.986Z,6.31
2022-11-20T11:17:29.437Z,6.14
2022-11-20T11:20:07.586Z,6.27
2022-11-20T11:22:48.676Z,6.33
2022-11-20T11:25:24.313Z,6.48
2022-11-20T11:27:52.502Z,6.53
2022-11-20T11:30:24.306Z,6.67
2022-11-20T11:32:53.163Z,6.75
2022-11-20T11:35:21.204Z,6.42
2022-11-20T11:37:49.328Z,6.56
2022-11-20T11:40:25.663Z,6.66
2022-11-20T11:42:59.852Z,6.60
2022-11-20T11:45:27.068Z,6.32
2022-11-20T11:47:56.945Z,6.43
2022-11-20T11:50:25.919Z,6.69
2022-11-20T11:53:03.160Z,6.86
2022-11-20T11:55:59.740Z,6.76
2022-11-20T11:58:47.047Z,6.93
2022-11-20T12:01:32.940Z,7.07
2022-11-20T12:04:17.972Z,7.14
2022-11-20T12:07:06.110Z,7.06
2022-11-20T12:09:52.820Z,6.98
2022-11-20T12:12:23.335Z,7.07
2022-11-20T12:14:54.080Z,7.12
2022-11-20T12:17:23.201Z,7.26
2022-11-20T12:19:49.570Z,7.32
2022-11-20T12:22:35.967Z,7.30
2022-11-20T12:25:17.655Z,7.13
2022-11-20T12:28:08.416Z,6.90
2022-11-20T12:31:12.328Z,6.88
2022-11-20T12:33:48.360Z,6.94
2022-11-20T12:36:14.828Z,7.26
2022-11-20T12:38:44.144Z,8.07
2022-11-20T12:41:51.281Z,8.27
2022-11-20T12:44:45.336Z,8.16
2022-11-20T12:47:23.692Z,8.06
2022-11-20T12:50:14.707Z,8.02
2022-11-20T12:53:20.978Z,7.89
2022-11-20T12:56:12.628Z,7.88
2022-11-20T12:58:48.823Z,7.81
2022-11-20T13:01:40.729Z,7.68
2022-11-20T13:04:36.954Z,7.61
2022-11-20T13:07:25.838Z,7.72
2022-11-20T13:09:53.255Z,7.81
2022-11-20T13:12:41.751Z,7.73
2022-11-20T13:15:36.923Z,7.47
2022-11-20T13:18:12.035Z,7.23
2022-11-20T13:20:44.505Z,7.23
2022-11-20T13:23:24.735Z,7.38
2022-11-20T13:25:53.855Z,7.17
2022-11-20T13:28:20.225Z,7.38
2022-11-20T13:30:52.624Z,7.29
2022-11-20T13:33:39.170Z,7.05
2022-11-20T13:36:23.953Z,7.24
2022-11-20T13:38:53.126Z,7.11
2022-11-20T13:41:36.279Z,6.90
2022-11-20T13:44:12.354Z,6.91
2022-11-20T13:46:45.728Z,6.72
2022-11-20T13:49:24.534Z,6.79
2022-11-20T13:51:54.939Z,6.45
2022-11-20T13:54:45.114Z,6.47
2022-11-20T13:57:37.885Z,6.47
2022-11-20T14:00:17.141Z,6.26
2022-11-20T14:02:45.275Z,5.93
2022-11-20T14:05:24.220Z,6.07
2022-11-20T14:07:52.871Z,5.90
2022-11-20T14:10:32.117Z,6.03
2022-11-20T14:12:59.845Z,6.14
2022-11-20T14:15:39.223Z,6.09
2022-11-20T14:18:22.979Z,5.79
2022-11-20T14:20:52.019Z,5.52
2022-11-20T14:23:30.816Z,5.60
2022-11-20T14:25:57.878Z,5.51
2022-11-20T14:28:32.009Z,5.35
2022-11-20T14:31:01.056Z,5.51
2022-11-20T14:33:28.391Z,5.27
2022-11-20T14:35:57.533Z,5.39
2022-11-20T14:38:34.587Z,5.71
2022-11-20T14:41:21.859Z,5.79
2022-11-20T14:43:55.600Z,5.71
2022-11-20T14:46:23.010Z,5.74
2022-11-20T14:48:56.923Z,5.79
2022-11-20T14:51:35.793Z,5.80
2022-11-20T14:54:16.822Z,5.32
2022-11-20T14:56:54.681Z,5.37
2022-11-20T14:59:29.824Z,5.20
2022-11-20T15:02:09.865Z,5.29
2022-11-20T15:04:47.281Z,5.37
2022-11-20T15:07:25.913Z,5.43
2022-11-20T15:10:08.599Z,5.40
2022-11-20T15:12:38.642Z,5.51
2022-11-20T15:15:06.782Z,5.54
2022-11-20T15:17:39.090Z,5.48
2022-11-20T15:20:14.198Z,5.55
2022-11-20T15:22:46.015Z,5.64
2022-11-20T15:25:17.765Z,5.65
2022-11-20T15:27:45.680Z,5.48
2022-11-20T15:30:20.880Z,5.26
2022-11-20T15:32:50.163Z,5.21
2022-11-20T15:35:16.687Z,5.26
2022-11-20T15:37:43.334Z,5.04
2022-11-20T15:40:10.740Z,5.02
2022-11-20T15:42:37.587Z,4.77
2022-11-20T15:45:06.900Z,4.84
2022-11-20T15:47:35.234Z,4.74
2022-11-20T15:53:23.812Z,4.64
2022-11-20T15:55:50.428Z,4.78
2022-11-20T15:58:20.480Z,4.69
2022-11-20T16:00:47.576Z,4.71
2022-11-20T16:03:19.518Z,4.69
2022-11-20T16:05:48.895Z,4.68
2022-11-20T16:08:15.835Z,4.45
2022-11-20T16:10:42.634Z,4.50
2022-11-20T16:13:36.369Z,4.51
2022-11-20T16:16:10.340Z,4.47
2022-11-20T16:18:36.982Z,4.34
2022-11-20T16:21:11.991Z,4.56
2022-11-20T16:23:44.457Z,4.72
2022-11-20T16:26:21.704Z,4.82
2022-11-20T16:28:50.488Z,4.89
2022-11-20T16:31:18.948Z,4.78
2022-11-20T16:33:53.227Z,4.93
2022-11-20T16:36:21.227Z,4.94
2022-11-20T16:38:47.979Z,4.94
2022-11-20T16:41:14.620Z,4.89
2022-11-20T16:43:51.776Z,4.87
2022-11-20T16:46:24.254Z,4.71
2022-11-20T16:49:11.790Z,4.75
2022-11-20T16:51:38.322Z,4.51
2022-11-20T16:54:09.988Z,4.60
2022-11-20T16:56:41.322Z,4.30
2022-11-20T16:59:07.860Z,4.08
2022-11-20T17:01:40.008Z,4.18
2022-11-20T17:04:08.739Z,4.22
2022-11-20T17:06:41.047Z,4.13
2022-11-20T17:09:10.885Z,4.02
2022-11-20T17:11:37.956Z,4.10
2022-11-20T17:14:09.560Z,4.08
2022-11-20T17:16:38.790Z,4.02
2022-11-20T17:19:05.523Z,4.04
2022-11-20T17:21:36.318Z,3.96
2022-11-20T17:24:07.310Z,3.77
2022-11-20T17:26:37.215Z,3.89
2022-11-20T17:29:10.376Z,3.88
2022-11-20T17:31:38.647Z,3.47
2022-11-20T17:34:13.469Z,3.71
2022-11-20T17:36:45.032Z,3.77
2022-11-20T17:39:19.837Z,3.40
2022-11-20T17:42:08.930Z,3.39
2022-11-20T17:44:41.765Z,3.50
2022-11-20T17:47:08.715Z,3.47
2022-11-20T17:49:35.213Z,3.53
2022-11-20T17:52:01.746Z,3.39
2022-11-20T17:54:28.296Z,3.31
2022-11-20T17:57:13.359Z,3.44
2022-11-20T17:59:40.326Z,3.42
2022-11-20T18:02:14.258Z,3.43
2022-11-20T18:04:43.292Z,3.60
2022-11-20T18:07:14.604Z,3.64
2022-11-20T18:09:41.120Z,3.49
2022-11-20T18:12:07.693Z,3.34
2022-11-20T18:14:36.592Z,3.21
2022-11-20T18:17:11.238Z,3.08
2022-11-20T18:19:51.322Z,2.90
2022-11-20T18:22:29.780Z,2.83
2022-11-20T18:24:56.279Z,2.78
2022-11-20T18:27:27.416Z,2.76
2022-11-20T18:29:56.410Z,2.77
2022-11-20T18:32:25.617Z,2.89
2022-11-20T18:34:52.153Z,2.90
2022-11-20T18:37:23.435Z,2.94
2022-11-20T18:39:50.539Z,2.93
2022-11-20T18:42:36.363Z,2.79
2022-11-20T18:45:04.606Z,2.80
2022-11-20T18:47:35.684Z,2.81
2022-11-20T18:50:02.277Z,2.75
2022-11-20T18:52:30.305Z,2.70
2022-11-20T18:54:56.925Z,2.69
2022-11-20T18:57:27.946Z,2.74
2022-11-20T18:59:55.730Z,2.77
2022-11-20T19:02:22.560Z,2.76
2022-11-20T19:04:51.451Z,2.85
2022-11-20T19:07:18.386Z,2.86
2022-11-20T19:09:49.190Z,2.95
2022-11-20T19:12:16.609Z,2.86
2022-11-20T19:14:45.892Z,2.83
2022-11-20T19:17:17.671Z,2.88
2022-11-20T19:19:47.562Z,3.03
2022-11-20T19:22:19.709Z,3.02
2022-11-20T19:24:48.356Z,3.10
2022-11-20T19:27:17.040Z,3.14
2022-11-20T19:29:45.904Z,3.18
2022-11-20T19:32:12.494Z,3.15
2022-11-20T19:34:41.569Z,3.13
2022-11-20T19:37:08.061Z,3.15
2022-11-20T19:39:36.292Z,3.03
2022-11-20T19:42:02.845Z,3.13
2022-11-20T19:44:32.963Z,3.22
2022-11-20T19:47:04.006Z,3.09
2022-11-20T19:49:30.637Z,2.95
2022-11-20T19:51:57.175Z,3.13
2022-11-20T19:54:23.781Z,3.19
2022-11-20T19:56:50.665Z,3.04
2022-11-20T19:59:19.811Z,3.10
2022-11-20T20:01:46.459Z,3.11
2022-11-20T20:04:13.096Z,3.10
2022-11-20T20:06:44.166Z,3.02
2022-11-20T20:09:13.757Z,2.88
2022-11-20T20:11:45.707Z,2.92
2022-11-20T20:14:16.573Z,2.91
2022-11-20T20:16:43.286Z,2.81
2022-11-20T20:19:15.094Z,2.87
2022-11-20T20:21:44.642Z,2.97
2022-11-20T20:24:13.446Z,2.72
2022-11-20T20:26:40.143Z,2.82
2022-11-20T20:29:06.752Z,3.00
2022-11-20T20:31:37.777Z,3.10
2022-11-20T20:34:05.361Z,2.99
2022-11-20T20:36:32.044Z,2.99
2022-11-20T20:39:08.141Z,3.01
2022-11-20T20:41:34.662Z,2.85
2022-11-20T20:44:20.737Z,2.95
2022-11-20T20:46:47.251Z,2.35
2022-11-20T20:49:13.751Z,2.05
2022-11-20T20:51:40.241Z,2.29
2022-11-20T20:54:06.870Z,2.09
2022-11-20T20:56:35.658Z,2.01
2022-11-20T20:59:06.447Z,1.95
2022-11-20T21:01:35.338Z,2.12
2022-11-20T21:04:04.152Z,2.39
2022-11-20T21:06:32.935Z,2.55
2022-11-20T21:09:02.152Z,2.58
2022-11-20T21:11:30.894Z,2.61
2022-11-20T21:13:57.459Z,2.63
2022-11-20T21:16:25.052Z,2.70
2022-11-20T21:18:56.198Z,2.85
2022-11-20T21:21:46.378Z,2.79
2022-11-20T21:24:15.026Z,2.77
2022-11-20T21:26:43.811Z,2.69
2022-11-20T21:29:13.940Z,2.48
2022-11-20T21:31:43.117Z,2.47
2022-11-20T21:34:18.595Z,2.63
2022-11-20T21:36:45.749Z,2.67
2022-11-20T21:39:18.905Z,2.62
2022-11-20T21:41:48.141Z,2.50
2022-11-20T21:44:34.828Z,2.68
2022-11-20T21:47:01.904Z,2.46
2022-11-20T21:49:33.259Z,2.04
2022-11-20T21:52:02.327Z,2.13
2022-11-20T21:54:31.547Z,2.23
2022-11-20T21:57:00.327Z,2.23
2022-11-20T21:59:26.900Z,2.42
2022-11-20T22:01:55.735Z,2.41
2022-11-20T22:04:24.939Z,2.48
2022-11-20T22:06:51.700Z,2.56
2022-11-20T22:09:20.529Z,2.42
2022-11-20T22:11:51.811Z,2.30
2022-11-20T22:14:21.104Z,2.34
2022-11-20T22:16:54.545Z,2.39
2022-11-20T22:19:22.839Z,2.15
2022-11-20T22:21:55.490Z,2.06
2022-11-20T22:24:23.310Z,2.06
2022-11-20T22:26:50.363Z,2.11
2022-11-20T22:29:20.855Z,2.29
2022-11-20T22:31:53.865Z,2.32
2022-11-20T22:34:20.762Z,2.37
2022-11-20T22:36:50.117Z,2.51
2022-11-20T22:39:17.589Z,2.55
2022-11-20T22:41:44.123Z,2.38
2022-11-20T22:44:16.563Z,2.35
2022-11-20T22:46:43.143Z,2.45
2022-11-20T22:49:09.919Z,2.36
2022-11-20T22:51:38.869Z,2.08
2022-11-20T22:54:06.408Z,1.80
2022-11-20T22:56:36.200Z,1.97
2022-11-20T22:59:05.463Z,1.94
2022-11-20T23:01:34.665Z,2.31
2022-11-20T23:04:05.430Z,2.35
2022-11-20T23:06:37.903Z,2.40
2022-11-20T23:09:06.228Z,2.37
2022-11-20T23:11:33.708Z,2.41
2022-11-20T23:14:03.006Z,2.33
2022-11-20T23:16:31.335Z,2.56
2022-11-20T23:19:04.560Z,2.72
2022-11-20T23:21:34.084Z,2.69
2022-11-20T23:24:03.811Z,2.56
2022-11-20T23:26:35.038Z,2.54
2022-11-20T23:29:01.900Z,2.45
2022-11-20T23:31:33.696Z,2.30
2022-11-20T23:34:00.421Z,1.85
2022-11-20T23:36:27.381Z,1.67
2022-11-20T23:38:56.733Z,1.58
2022-11-20T23:41:28.326Z,1.61
2022-11-20T23:43:57.309Z,1.57
2022-11-20T23:46:23.877Z,1.74
2022-11-20T23:48:55.161Z,1.69
2022-11-20T23:51:21.774Z,1.87
2022-11-20T23:53:48.334Z,2.01
2022-11-20T23:56:15.004Z,2.01
2022-11-20T23:58:42.051Z,1.94
